createdAt,value
2023-02-12T00:01:15.342Z,5.29
2023-02-12T00:03:41.989Z,5.33
2023-02-12T00:06:09.981Z,5.32
2023-02-12T00:08:38.034Z,5.34
2023-02-12T00:11:13.740Z,5.36
2023-02-12T00:13:40.992Z,5.33
2023-02-12T00:16:09.772Z,5.30
2023-02-12T00:18:36.441Z,5.27
2023-02-12T00:21:03.656Z,5.23
2023-02-12T00:23:30.592Z,5.25
2023-02-12T00:25:57.472Z,5.24
2023-02-12T00:28:24.045Z,5.26
2023-02-12T00:30:50.687Z,5.25
2023-02-12T00:33:17.237Z,5.25
2023-02-12T00:35:44.231Z,5.26
2023-02-12T00:38:12.595Z,5.22
2023-02-12T00:40:39.156Z,5.29
2023-02-12T00:43:06.069Z,5.28
2023-02-12T00:45:32.614Z,5.26
2023-02-12T00:47:59.041Z,5.24
2023-02-12T00:50:25.649Z,5.19
2023-02-12T00:52:52.654Z,5.35
2023-02-12T00:55:19.637Z,5.33
2023-02-12T00:57:46.137Z,5.28
2023-02-12T01:00:13.873Z,5.31
2023-02-12T01:02:40.772Z,5.37
2023-02-12T01:05:07.610Z,5.38
2023-02-12T01:07:34.096Z,5.41
2023-02-12T01:10:00.589Z,5.46
2023-02-12T01:12:27.150Z,5.43
2023-02-12T01:14:53.601Z,5.36
2023-02-12T01:17:21.290Z,5.39
2023-02-12T01:19:47.694Z,5.38
2023-02-12T01:22:14.105Z,5.38
2023-02-12T01:24:40.526Z,5.37
2023-02-12T01:27:06.932Z,5.37
2023-02-12T01:29:33.365Z,5.35
2023-02-12T01:31:59.862Z,5.38
2023-02-12T01:34:26.364Z,5.33
2023-02-12T01:36:52.789Z,5.36
2023-02-12T01:39:19.284Z,5.45
2023-02-12T01:41:45.956Z,5.40
2023-02-12T01:44:25.909Z,5.44
2023-02-12T01:46:59.698Z,5.40
2023-02-12T01:49:52.267Z,5.44
2023-02-12T01:52:27.423Z,5.13
2023-02-12T01:54:57.327Z,5.48
2023-02-12T01:57:24.813Z,5.34
2023-02-12T01:59:58.135Z,5.48
2023-02-12T02:02:30.298Z,5.51
2023-02-12T02:05:00.170Z,5.56
2023-02-12T02:07:26.983Z,5.53
2023-02-12T02:09:53.832Z,5.53
2023-02-12T02:12:39.199Z,5.56
2023-02-12T02:15:06.975Z,5.57
2023-02-12T02:17:51.343Z,5.61
2023-02-12T02:20:42.859Z,5.63
2023-02-12T02:23:32.587Z,5.70
2023-02-12T02:26:14.832Z,5.60
2023-02-12T02:28:56.493Z,5.72
2023-02-12T02:31:43.851Z,5.76
2023-02-12T02:34:36.731Z,5.81
2023-02-12T02:37:14.373Z,5.84
2023-02-12T02:39:52.078Z,5.83
2023-02-12T02:42:33.164Z,5.85
2023-02-12T02:45:13.807Z,5.84
2023-02-12T02:47:48.803Z,5.87
2023-02-12T02:50:25.258Z,5.89
2023-02-12T02:53:17.480Z,5.87
2023-02-12T02:55:50.303Z,5.87
2023-02-12T02:58:27.926Z,5.79
2023-02-12T03:01:20.452Z,5.79
2023-02-12T03:03:54.973Z,5.79
2023-02-12T03:06:45.184Z,5.81
2023-02-12T03:09:33.690Z,5.89
2023-02-12T03:12:06.453Z,5.82
2023-02-12T03:14:42.539Z,5.83
2023-02-12T03:17:14.426Z,5.93
2023-02-12T03:19:46.508Z,5.83
2023-02-12T03:22:18.333Z,5.89
2023-02-12T03:24:53.726Z,5.94
2023-02-12T03:27:31.581Z,6.02
2023-02-12T03:29:58.798Z,6.01
2023-02-12T03:32:36.361Z,6.00
2023-02-12T03:35:16.324Z,5.94
2023-02-12T03:37:58.149Z,5.96
2023-02-12T03:40:37.158Z,5.89
2023-02-12T03:43:25.041Z,5.94
2023-02-12T03:46:24.935Z,5.96
2023-02-12T03:49:03.450Z,5.98
2023-02-12T03:51:42.257Z,6.00
2023-02-12T03:54:12.775Z,5.99
2023-02-12T03:57:08.164Z,6.05
2023-02-12T03:59:37.735Z,5.99
2023-02-12T04:02:04.864Z,5.91
2023-02-12T04:04:32.210Z,6.07
2023-02-12T04:06:58.952Z,6.02
2023-02-12T04:09:27.572Z,6.01
2023-02-12T04:12:26.021Z,6.09
2023-02-12T04:15:02.223Z,5.89
2023-02-12T04:17:53.619Z,5.96
2023-02-12T04:20:36.750Z,6.10
2023-02-12T04:23:24.204Z,6.13
2023-02-12T04:26:09.904Z,6.07
2023-02-12T04:28:42.229Z,6.11
2023-02-12T04:31:20.580Z,6.12
2023-02-12T04:34:07.335Z,6.01
2023-02-12T04:36:38.679Z,6.05
2023-02-12T04:39:11.924Z,6.03
2023-02-12T04:41:39.677Z,6.00
2023-02-12T04:44:16.036Z,6.05
2023-02-12T04:46:42.447Z,5.96
2023-02-12T04:49:12.486Z,5.95
2023-02-12T04:51:38.965Z,5.93
2023-02-12T04:54:05.725Z,6.02
2023-02-12T04:56:32.401Z,6.04
2023-02-12T04:58:59.107Z,6.11
2023-02-12T05:01:25.892Z,6.16
2023-02-12T05:03:52.726Z,6.11
2023-02-12T05:06:19.292Z,6.12
2023-02-12T05:08:45.943Z,6.14
2023-02-12T05:11:12.371Z,6.03
2023-02-12T05:13:39.099Z,6.07
2023-02-12T05:16:07.620Z,6.12
2023-02-12T05:18:35.211Z,6.08
2023-02-12T05:21:04.452Z,6.12
2023-02-12T05:23:33.281Z,5.90
2023-02-12T05:26:01.253Z,6.03
2023-02-12T05:28:28.336Z,6.07
2023-02-12T05:30:55.258Z,6.10
2023-02-12T05:33:21.728Z,6.14
2023-02-12T05:35:48.137Z,6.12
2023-02-12T05:38:14.713Z,6.12
2023-02-12T05:40:43.121Z,5.97
2023-02-12T05:43:09.525Z,6.07
2023-02-12T05:45:36.111Z,6.14
2023-02-12T05:48:03.057Z,6.09
2023-02-12T05:50:29.606Z,6.08
2023-02-12T05:52:56.080Z,6.17
2023-02-12T05:55:22.522Z,6.09
2023-02-12T05:57:50.881Z,6.16
2023-02-12T06:00:17.558Z,6.18
2023-02-12T06:02:44.363Z,6.16
2023-02-12T06:05:10.787Z,6.26
2023-02-12T06:07:37.206Z,6.19
2023-02-12T06:10:03.635Z,6.18
2023-02-12T06:12:30.076Z,6.09
2023-02-12T06:14:56.542Z,6.09
2023-02-12T06:17:22.960Z,6.11
2023-02-12T06:19:49.642Z,6.22
2023-02-12T06:22:16.077Z,6.11
2023-02-12T06:24:42.513Z,6.20
2023-02-12T06:27:09.203Z,6.25
2023-02-12T06:29:35.628Z,6.20
2023-02-12T06:32:02.198Z,6.21
2023-02-12T06:34:28.796Z,6.27
2023-02-12T06:36:55.203Z,6.22
2023-02-12T06:39:21.735Z,6.22
2023-02-12T06:41:48.182Z,6.13
2023-02-12T06:44:14.808Z,6.20
2023-02-12T06:46:41.313Z,6.13
2023-02-12T06:49:07.898Z,6.07
2023-02-12T06:51:36.397Z,6.16
2023-02-12T06:54:02.881Z,6.25
2023-02-12T06:56:29.278Z,6.20
2023-02-12T06:58:58.359Z,6.11
2023-02-12T07:01:27.065Z,6.10
2023-02-12T07:04:03.627Z,6.21
2023-02-12T07:06:31.993Z,6.17
2023-02-12T07:08:58.745Z,6.17
2023-02-12T07:11:27.319Z,6.13
2023-02-12T07:13:53.982Z,6.12
2023-02-12T07:16:21.003Z,6.23
2023-02-12T07:18:48.018Z,6.17
2023-02-12T07:21:16.305Z,6.25
2023-02-12T07:23:49.168Z,6.05
2023-02-12T07:26:17.815Z,6.24
2023-02-12T07:28:44.275Z,6.30
2023-02-12T07:31:16.707Z,6.33
2023-02-12T07:33:43.536Z,6.32
2023-02-12T07:36:13.566Z,6.36
2023-02-12T07:38:40.852Z,6.24
2023-02-12T07:41:13.113Z,6.28
2023-02-12T07:43:41.634Z,6.30
2023-02-12T07:46:23.023Z,6.36
2023-02-12T07:48:51.956Z,6.41
2023-02-12T07:51:21.672Z,6.41
2023-02-12T07:53:49.053Z,6.44
2023-02-12T07:56:22.328Z,6.42
2023-02-12T07:58:51.039Z,6.47
2023-02-12T08:01:28.782Z,6.39
2023-02-12T08:03:59.246Z,6.48
2023-02-12T08:06:28.510Z,6.46
2023-02-12T08:08:57.485Z,6.47
2023-02-12T08:11:25.338Z,6.45
2023-02-12T08:13:52.147Z,6.50
2023-02-12T08:16:22.239Z,6.59
2023-02-12T08:18:49.569Z,6.60
2023-02-12T08:21:22.183Z,6.59
2023-02-12T08:23:51.780Z,6.60
2023-02-12T08:26:22.118Z,6.69
2023-02-12T08:29:22.432Z,6.64
2023-02-12T08:31:50.662Z,6.79
2023-02-12T08:34:23.232Z,6.76
2023-02-12T08:36:53.971Z,6.69
2023-02-12T08:39:21.170Z,6.77
2023-02-12T08:41:48.169Z,6.78
2023-02-12T08:44:15.357Z,6.92
2023-02-12T08:46:50.785Z,6.88
2023-02-12T08:49:20.071Z,6.92
2023-02-12T08:51:49.113Z,6.90
2023-02-12T08:54:18.684Z,6.98
2023-02-12T08:56:45.656Z,7.00
2023-02-12T08:59:14.101Z,7.07
2023-02-12T09:01:41.891Z,7.04
2023-02-12T09:04:15.112Z,6.99
2023-02-12T09:06:41.945Z,7.07
2023-02-12T09:09:08.428Z,6.95
2023-02-12T09:11:35.556Z,6.99
2023-02-12T09:14:03.995Z,6.93
2023-02-12T09:16:33.653Z,6.72
2023-02-12T09:19:00.346Z,6.69
2023-02-12T09:21:27.196Z,6.77
2023-02-12T09:23:53.784Z,6.68
2023-02-12T09:26:23.357Z,6.82
2023-02-12T09:28:50.592Z,6.68
2023-02-12T09:31:37.385Z,6.65
2023-02-12T09:34:06.193Z,6.68
2023-02-12T09:36:33.243Z,6.72
2023-02-12T09:39:00.523Z,6.83
2023-02-12T09:41:50.631Z,6.82
2023-02-12T09:44:26.695Z,6.93
2023-02-12T09:47:16.143Z,6.88
2023-02-12T09:50:33.654Z,6.91
2023-02-12T09:53:00.670Z,6.92
2023-02-12T09:55:32.163Z,7.02
2023-02-12T09:58:02.988Z,7.26
2023-02-12T10:00:31.845Z,7.29
2023-02-12T10:03:05.469Z,7.30
2023-02-12T10:05:38.942Z,7.21
2023-02-12T10:08:32.308Z,7.39
2023-02-12T10:11:05.294Z,7.29
2023-02-12T10:14:02.105Z,7.27
2023-02-12T10:16:46.900Z,7.39
2023-02-12T10:19:27.075Z,7.47
2023-02-12T10:21:56.213Z,7.59
2023-02-12T10:24:47.455Z,7.56
2023-02-12T10:27:20.641Z,7.49
2023-02-12T10:29:48.785Z,7.46
2023-02-12T10:32:25.832Z,7.45
2023-02-12T10:34:53.926Z,7.33
2023-02-12T10:37:28.366Z,7.42
2023-02-12T10:40:02.141Z,7.48
2023-02-12T10:42:43.231Z,7.72
2023-02-12T10:45:15.215Z,7.71
2023-02-12T10:47:41.704Z,7.89
2023-02-12T10:50:42.798Z,7.93
2023-02-12T10:53:20.340Z,7.78
2023-02-12T10:55:46.857Z,8.03
2023-02-12T10:58:23.068Z,7.89
2023-02-12T11:00:58.356Z,7.95
2023-02-12T11:03:37.593Z,8.18
2023-02-12T11:06:16.611Z,8.24
2023-02-12T11:08:43.992Z,8.28
2023-02-12T11:11:21.726Z,8.13
2023-02-12T11:13:59.902Z,8.12
2023-02-12T11:16:36.702Z,8.04
2023-02-12T11:19:19.582Z,7.95
2023-02-12T11:21:46.247Z,7.89
2023-02-12T11:24:23.213Z,8.09
2023-02-12T11:26:49.632Z,7.93
2023-02-12T11:29:25.863Z,8.13
2023-02-12T11:32:04.965Z,7.72
2023-02-12T11:34:31.794Z,7.89
2023-02-12T11:36:58.595Z,8.15
2023-02-12T11:39:32.565Z,7.92
2023-02-12T11:42:15.331Z,8.10
2023-02-12T11:44:47.726Z,8.17
2023-02-12T11:47:23.734Z,8.04
2023-02-12T11:49:53.959Z,8.13
2023-02-12T11:52:24.028Z,8.08
2023-02-12T11:54:53.651Z,8.19
2023-02-12T11:57:43.985Z,8.09
2023-02-12T12:00:52.149Z,8.05
2023-02-12T12:03:35.518Z,7.95
2023-02-12T12:06:24.518Z,8.07
2023-02-12T12:09:09.872Z,7.97
2023-02-12T12:11:54.886Z,7.87
2023-02-12T12:14:27.458Z,7.92
2023-02-12T12:17:25.002Z,8.11
2023-02-12T12:20:11.171Z,7.91
2023-02-12T12:22:56.198Z,7.87
2023-02-12T12:25:28.088Z,7.85
2023-02-12T12:28:18.308Z,7.83
2023-02-12T12:30:44.740Z,8.11
2023-02-12T12:33:20.274Z,8.20
2023-02-12T12:36:14.550Z,8.28
2023-02-12T12:38:40.966Z,8.11
2023-02-12T12:41:18.503Z,8.10
2023-02-12T12:43:57.712Z,8.03
2023-02-12T12:46:56.113Z,7.93
2023-02-12T12:50:05.312Z,8.00
2023-02-12T12:52:42.921Z,8.16
2023-02-12T12:55:37.150Z,8.08
2023-02-12T12:58:12.889Z,8.02
2023-02-12T13:01:04.345Z,8.14
2023-02-12T13:03:49.207Z,8.16
2023-02-12T13:06:37.970Z,8.14
2023-02-12T13:09:38.937Z,8.15
2023-02-12T13:12:11.214Z,8.20
2023-02-12T13:14:53.687Z,8.13
2023-02-12T13:17:29.386Z,8.13
2023-02-12T13:20:24.470Z,8.10
2023-02-12T13:23:22.056Z,8.06
2023-02-12T13:26:04.838Z,8.16
2023-02-12T13:28:38.389Z,8.11
2023-02-12T13:31:30.089Z,8.03
2023-02-12T13:34:01.513Z,8.13
2023-02-12T13:36:27.961Z,8.04
2023-02-12T13:39:12.610Z,8.06
2023-02-12T13:41:45.528Z,7.98
2023-02-12T13:44:28.879Z,7.91
2023-02-12T13:47:22.712Z,8.00
2023-02-12T13:50:05.372Z,8.10
2023-02-12T13:52:53.001Z,8.17
2023-02-12T13:55:29.760Z,7.82
2023-02-12T13:58:40.059Z,7.97
2023-02-12T14:01:10.550Z,7.82
2023-02-12T14:03:38.856Z,7.72
2023-02-12T14:06:22.629Z,7.97
2023-02-12T14:09:09.940Z,7.92
2023-02-12T14:11:48.451Z,7.79
2023-02-12T14:14:27.591Z,7.69
2023-02-12T14:16:54.133Z,7.74
2023-02-12T14:19:52.913Z,7.66
2023-02-12T14:22:28.093Z,7.55
2023-02-12T14:24:59.040Z,7.60
2023-02-12T14:27:46.130Z,7.73
2023-02-12T14:30:12.715Z,7.76
2023-02-12T14:32:58.096Z,7.74
2023-02-12T14:35:36.751Z,7.74
2023-02-12T14:38:11.423Z,7.53
2023-02-12T14:40:47.286Z,7.57
2023-02-12T14:43:58.957Z,7.39
2023-02-12T14:46:25.470Z,7.55
2023-02-12T14:48:51.970Z,7.52
2023-02-12T14:51:45.409Z,7.69
2023-02-12T14:54:30.236Z,7.72
2023-02-12T14:57:01.627Z,7.74
2023-02-12T14:59:33.747Z,7.67
2023-02-12T15:02:02.385Z,7.69
2023-02-12T15:04:33.012Z,7.72
2023-02-12T15:07:08.267Z,7.68
2023-02-12T15:10:10.065Z,7.71
2023-02-12T15:12:45.682Z,7.73
2023-02-12T15:15:35.368Z,7.80
2023-02-12T15:18:18.709Z,7.75
2023-02-12T15:20:51.071Z,7.77
2023-02-12T15:23:36.322Z,7.80
2023-02-12T15:26:05.022Z,7.79
2023-02-12T15:28:38.288Z,7.66
2023-02-12T15:31:10.754Z,7.72
2023-02-12T15:33:44.908Z,7.69
2023-02-12T15:36:18.382Z,7.69
2023-02-12T15:38:51.078Z,7.68
2023-02-12T15:41:33.488Z,7.57
2023-02-12T15:44:02.339Z,7.52
2023-02-12T15:46:28.781Z,7.42
2023-02-12T15:48:58.376Z,7.58
2023-02-12T15:51:34.851Z,7.52
2023-02-12T15:54:04.981Z,7.53
2023-02-12T15:56:33.869Z,7.44
2023-02-12T15:59:02.497Z,7.30
2023-02-12T16:01:32.798Z,7.44
2023-02-12T16:04:02.303Z,7.35
2023-02-12T16:06:32.298Z,7.30
2023-02-12T16:09:03.789Z,7.30
2023-02-12T16:11:31.640Z,7.36
2023-02-12T16:14:08.810Z,7.45
2023-02-12T16:16:45.552Z,7.37
2023-02-12T16:19:25.598Z,7.47
2023-02-12T16:21:55.045Z,7.45
2023-02-12T16:24:27.119Z,7.35
2023-02-12T16:26:54.280Z,7.36
2023-02-12T16:29:21.390Z,7.25
2023-02-12T16:32:01.918Z,7.18
2023-02-12T16:34:37.736Z,7.27
2023-02-12T16:37:39.004Z,7.26
2023-02-12T16:40:15.571Z,7.33
2023-02-12T16:42:47.727Z,7.32
2023-02-12T16:45:32.437Z,7.23
2023-02-12T16:48:10.375Z,7.36
2023-02-12T16:50:44.842Z,7.28
2023-02-12T16:53:29.967Z,7.34
2023-02-12T16:55:58.284Z,7.28
2023-02-12T16:58:26.348Z,7.13
2023-02-12T17:00:54.932Z,7.09
2023-02-12T17:03:21.469Z,7.15
2023-02-12T17:05:49.372Z,7.22
2023-02-12T17:08:19.592Z,7.21
2023-02-12T17:10:46.067Z,7.20
2023-02-12T17:13:12.451Z,7.11
2023-02-12T17:15:56.696Z,7.11
2023-02-12T17:18:24.908Z,7.16
2023-02-12T17:21:03.510Z,6.98
2023-02-12T17:23:30.789Z,6.98
2023-02-12T17:25:57.872Z,7.05
2023-02-12T17:30:52.323Z,7.08
2023-02-12T17:33:19.973Z,7.13
2023-02-12T17:35:46.544Z,7.12
2023-02-12T17:38:13.095Z,7.08
2023-02-12T17:40:39.522Z,6.99
2023-02-12T17:43:06.288Z,6.91
2023-02-12T17:45:32.799Z,6.99
2023-02-12T17:47:59.408Z,7.05
2023-02-12T17:50:25.904Z,7.01
2023-02-12T17:52:52.439Z,7.06
2023-02-12T17:55:18.984Z,7.06
2023-02-12T17:57:45.433Z,6.96
2023-02-12T18:00:14.715Z,6.90
2023-02-12T18:02:41.193Z,6.89
2023-02-12T18:07:50.854Z,6.90
2023-02-12T18:10:17.353Z,6.77
2023-02-12T18:12:43.818Z,6.86
2023-02-12T18:15:10.848Z,6.85
2023-02-12T18:17:40.980Z,6.88
2023-02-12T18:20:08.537Z,6.97
2023-02-12T18:22:35.627Z,6.96
2023-02-12T18:25:02.140Z,6.82
2023-02-12T18:27:28.626Z,6.86
2023-02-12T18:29:56.957Z,6.90
2023-02-12T18:32:24.453Z,6.78
2023-02-12T18:34:51.140Z,6.74
2023-02-12T18:37:17.563Z,6.83
2023-02-12T18:44:51.942Z,6.62
2023-02-12T18:47:19.731Z,6.49
2023-02-12T18:49:46.360Z,6.48
2023-02-12T18:52:12.969Z,6.59
2023-02-12T18:54:39.534Z,6.47
2023-02-12T18:57:06.165Z,6.56
2023-02-12T18:59:32.674Z,6.46
2023-02-12T19:01:59.320Z,6.53
2023-02-12T19:04:27.823Z,6.58
2023-02-12T19:06:54.985Z,6.53
2023-02-12T19:09:24.847Z,6.53
2023-02-12T19:11:54.708Z,6.59
2023-02-12T19:14:23.158Z,6.45
2023-02-12T19:16:50.353Z,6.70
2023-02-12T19:19:18.376Z,6.71
2023-02-12T19:21:44.838Z,6.59
2023-02-12T19:24:14.926Z,6.59
2023-02-12T19:26:41.562Z,6.30
2023-02-12T19:29:08.072Z,6.63
2023-02-12T19:31:37.671Z,6.57
2023-02-12T19:34:07.372Z,6.41
2023-02-12T19:36:35.982Z,6.49
2023-02-12T19:39:04.988Z,6.40
2023-02-12T19:41:32.993Z,6.42
2023-02-12T19:44:01.512Z,6.16
2023-02-12T19:46:30.828Z,6.40
2023-02-12T19:48:59.692Z,6.34
2023-02-12T19:51:26.800Z,6.28
2023-02-12T19:53:53.809Z,6.28
2023-02-12T19:56:20.318Z,6.31
2023-02-12T19:58:46.771Z,6.24
2023-02-12T20:01:17.700Z,6.08
2023-02-12T20:03:45.322Z,6.10
2023-02-12T20:06:16.235Z,6.27
2023-02-12T20:08:44.363Z,6.25
2023-02-12T20:11:16.542Z,6.24
2023-02-12T20:13:44.052Z,6.09
2023-02-12T20:16:16.792Z,6.25
2023-02-12T20:18:45.329Z,6.17
2023-02-12T20:21:15.118Z,6.19
2023-02-12T20:23:42.165Z,6.18
2023-02-12T20:26:10.684Z,6.03
2023-02-12T20:28:38.358Z,6.12
2023-02-12T20:31:19.239Z,6.13
2023-02-12T20:33:47.067Z,6.18
2023-02-12T20:36:14.923Z,6.21
2023-02-12T20:38:44.830Z,6.14
2023-02-12T20:41:12.582Z,6.13
2023-02-12T20:43:39.775Z,6.07
2023-02-12T20:46:18.316Z,6.12
2023-02-12T20:48:45.982Z,6.03
2023-02-12T20:51:16.028Z,5.89
2023-02-12T20:53:43.815Z,5.97
2023-02-12T20:56:13.919Z,5.91
2023-02-12T20:58:45.103Z,5.96
2023-02-12T21:01:21.589Z,5.96
2023-02-12T21:03:50.023Z,5.89
2023-02-12T21:06:17.536Z,5.93
2023-02-12T21:08:44.457Z,5.91
2023-02-12T21:11:17.281Z,5.98
2023-02-12T21:13:58.616Z,6.02
2023-02-12T21:16:38.163Z,5.98
2023-02-12T21:19:04.937Z,5.92
2023-02-12T21:21:34.222Z,5.96
2023-02-12T21:24:02.552Z,5.91
2023-02-12T21:26:32.037Z,5.74
2023-02-12T21:29:00.398Z,5.69
2023-02-12T21:31:36.475Z,5.71
2023-02-12T21:34:05.199Z,5.80
2023-02-12T21:36:34.832Z,5.56
2023-02-12T21:39:01.612Z,5.61
2023-02-12T21:41:31.177Z,5.41
2023-02-12T21:44:00.302Z,5.54
2023-02-12T21:46:27.710Z,5.52
2023-02-12T21:48:54.717Z,5.39
2023-02-12T21:51:23.617Z,5.41
2023-02-12T21:53:55.112Z,5.37
2023-02-12T21:56:22.501Z,5.21
2023-02-12T21:58:49.715Z,5.37
2023-02-12T22:01:22.817Z,5.30
2023-02-12T22:03:50.397Z,5.25
2023-02-12T22:06:19.177Z,5.23
2023-02-12T22:08:46.796Z,5.17
2023-02-12T22:11:13.935Z,5.17
2023-02-12T22:13:41.455Z,5.16
2023-02-12T22:16:13.882Z,5.19
2023-02-12T22:18:41.519Z,5.15
2023-02-12T22:21:13.097Z,5.18
2023-02-12T22:23:40.376Z,5.15
2023-02-12T22:26:12.749Z,5.12
2023-02-12T22:28:41.783Z,5.20
2023-02-12T22:31:09.876Z,5.13
2023-02-12T22:33:36.446Z,5.21
2023-02-12T22:36:08.614Z,5.20
2023-02-12T22:38:36.475Z,5.22
2023-02-12T22:41:04.553Z,5.12
2023-02-12T22:43:32.937Z,5.09
2023-02-12T22:46:00.066Z,5.20
2023-02-12T22:48:30.946Z,5.16
2023-02-12T22:50:58.497Z,5.18
2023-02-12T22:53:25.962Z,5.17
2023-02-12T22:55:53.098Z,5.18
2023-02-12T22:58:19.767Z,5.23
2023-02-12T23:00:46.249Z,5.26
2023-02-12T23:03:12.741Z,5.33
2023-02-12T23:05:39.548Z,5.33
2023-02-12T23:08:06.701Z,5.33
2023-02-12T23:10:33.654Z,5.36
2023-02-12T23:13:02.391Z,5.28
2023-02-12T23:15:29.208Z,5.28
2023-02-12T23:17:55.754Z,5.35
2023-02-12T23:20:22.196Z,5.40
2023-02-12T23:22:48.610Z,5.38
2023-02-12T23:25:15.066Z,5.43
2023-02-12T23:27:41.542Z,5.18
2023-02-12T23:30:09.111Z,5.41
2023-02-12T23:32:35.591Z,5.41
2023-02-12T23:35:02.042Z,5.60
2023-02-12T23:37:28.494Z,5.48
2023-02-12T23:39:54.913Z,5.50
2023-02-12T23:42:21.351Z,5.54
2023-02-12T23:44:47.911Z,5.50
2023-02-12T23:47:14.303Z,5.35
2023-02-12T23:49:40.797Z,5.41
2023-02-12T23:52:07.422Z,5.43
2023-02-12T23:54:33.977Z,5.39
2023-02-12T23:57:00.485Z,5.41
2023-02-12T23:59:27.702Z,5.40
